CheckWX is a tool to help pilots better visualize weather data.  It is not intended as a substitute for an official pre-flight weather briefing.

07:12:04 UTC

KCVG TAF
Cincinnati / Northern Kentucky International Airport
Covington, Kentucky, USA
KCVG 160659Z 1607/1712 23006KT P6SM VCSH SCT018 OVC050 FM161100 20005KT P6SM SHRA VCTS SCT018 OVC050CB FM161500 21008KT P6SM VCSH BKN035 OVC120 FM161800 24007KT P6SM SCT040 FM170200 21003KT P6SM BKN080

Jun-16@
07:00 UTC

Jun-16 @ 07:00 UTC

Jun-16@
11:00 UTC

Jun-16 @ 11:00 UTC

KCVG 160659Z 1607/1712 23006KT P6SM VCSH SCT018 OVC050
Wind
  • 230° at 6 KTS
Cloud Levels
  • Scattered at 1,800' AGL
  • Overcast at 5,000' AGL

Jun-16@
11:00 UTC

Jun-16 @ 11:00 UTC

Jun-16@
15:00 UTC

Jun-16 @ 15:00 UTC

FM161100 20005KT P6SM SHRA VCTS SCT018 OVC050CB

From

From Standard forecast or significant change

Wind
  • 200° at 5 KTS
Conditions
Rain, Area Thunderstorm
Cloud Levels
  • Scattered at 1,800' AGL
  • Overcast at 5,000' AGL

Jun-16@
15:00 UTC

Jun-16 @ 15:00 UTC

Jun-16@
18:00 UTC

Jun-16 @ 18:00 UTC

FM161500 21008KT P6SM VCSH BKN035 OVC120

From

From Standard forecast or significant change

Wind
  • 210° at 8 KTS
Cloud Levels
  • Broken at 3,500' AGL
  • Overcast at 12,000' AGL

Jun-16@
18:00 UTC

Jun-16 @ 18:00 UTC

Jun-17@
02:00 UTC

Jun-17 @ 02:00 UTC

FM161800 24007KT P6SM SCT040

From

From Standard forecast or significant change

Wind
  • 240° at 7 KTS
Cloud Levels
  • Scattered at 4,000' AGL

Jun-17@
02:00 UTC

Jun-17 @ 02:00 UTC

Jun-17@
12:00 UTC

Jun-17 @ 12:00 UTC

FM170200 21003KT P6SM BKN080

From

From Standard forecast or significant change

Wind
  • 210° at 3 KTS
Cloud Levels
  • Broken at 8,000' AGL